Terminal Aerodrome Forecast
Issued by NWS

Home | Current Version | Previous Version | Text Only | Print | Product List | Glossary On
Versions: 1 2 3 4 5 6 7 8 9 10 11 12 13
000
FTUS45 KRIW 220530
TAFLND
TAF
KLND 220530Z 2206/2306 VRB06KT P6SM SKC
     FM221900 VRB05KT P6SM SCT080 BKN150
     FM230500 31005KT P6SM BKN070=

USA.gov is the U.S. government's official web portal to all federal, state and local government web resources and services.